sensor_id;sensor_type;location;lat;lon;timestamp;P1;durP1;ratioP1;P2;durP2;ratioP2
4268;SDS011;2148;48.554;7.834;2023-04-28T00:00:16;4.20;;;3.90;;
4268;SDS011;2148;48.554;7.834;2023-04-28T00:02:42;4.10;;;3.80;;
4268;SDS011;2148;48.554;7.834;2023-04-28T00:05:07;4.87;;;4.00;;
4268;SDS011;2148;48.554;7.834;2023-04-28T00:07:33;5.80;;;3.83;;
4268;SDS011;2148;48.554;7.834;2023-04-28T00:09:58;4.27;;;3.87;;
4268;SDS011;2148;48.554;7.834;2023-04-28T00:12:24;4.33;;;3.93;;
4268;SDS011;2148;48.554;7.834;2023-04-28T00:14:49;4.30;;;3.73;;
4268;SDS011;2148;48.554;7.834;2023-04-28T00:17:15;3.77;;;3.47;;
4268;SDS011;2148;48.554;7.834;2023-04-28T00:19:41;4.13;;;3.77;;
4268;SDS011;2148;48.554;7.834;2023-04-28T00:22:06;4.03;;;3.50;;
4268;SDS011;2148;48.554;7.834;2023-04-28T00:24:31;5.57;;;3.70;;
4268;SDS011;2148;48.554;7.834;2023-04-28T00:26:57;6.40;;;3.87;;
4268;SDS011;2148;48.554;7.834;2023-04-28T00:29:23;4.37;;;3.60;;
4268;SDS011;2148;48.554;7.834;2023-04-28T00:31:48;4.30;;;3.60;;
4268;SDS011;2148;48.554;7.834;2023-04-28T00:34:13;4.83;;;3.50;;
4268;SDS011;2148;48.554;7.834;2023-04-28T00:36:39;3.67;;;3.37;;
4268;SDS011;2148;48.554;7.834;2023-04-28T00:39:04;4.20;;;3.80;;
4268;SDS011;2148;48.554;7.834;2023-04-28T00:41:30;3.40;;;3.10;;
4268;SDS011;2148;48.554;7.834;2023-04-28T00:43:55;3.90;;;3.60;;
4268;SDS011;2148;48.554;7.834;2023-04-28T00:46:25;5.27;;;3.53;;
4268;SDS011;2148;48.554;7.834;2023-04-28T00:48:52;4.87;;;3.20;;
4268;SDS011;2148;48.554;7.834;2023-04-28T00:51:18;4.87;;;3.40;;
4268;SDS011;2148;48.554;7.834;2023-04-28T00:53:43;4.03;;;3.73;;
4268;SDS011;2148;48.554;7.834;2023-04-28T00:56:09;5.30;;;3.43;;
4268;SDS011;2148;48.554;7.834;2023-04-28T00:58:34;5.00;;;3.40;;
4268;SDS011;2148;48.554;7.834;2023-04-28T01:01:03;3.83;;;3.40;;
4268;SDS011;2148;48.554;7.834;2023-04-28T01:03:30;5.47;;;3.20;;
4268;SDS011;2148;48.554;7.834;2023-04-28T01:06:04;4.33;;;3.40;;
4268;SDS011;2148;48.554;7.834;2023-04-28T01:08:30;4.33;;;3.63;;
4268;SDS011;2148;48.554;7.834;2023-04-28T01:10:56;4.60;;;3.73;;
4268;SDS011;2148;48.554;7.834;2023-04-28T01:13:22;4.53;;;3.43;;
4268;SDS011;2148;48.554;7.834;2023-04-28T01:15:47;6.20;;;3.50;;
4268;SDS011;2148;48.554;7.834;2023-04-28T01:18:13;6.10;;;3.87;;
4268;SDS011;2148;48.554;7.834;2023-04-28T01:20:40;4.50;;;4.10;;
4268;SDS011;2148;48.554;7.834;2023-04-28T01:23:10;4.27;;;3.73;;
4268;SDS011;2148;48.554;7.834;2023-04-28T01:25:36;3.93;;;3.60;;
4268;SDS011;2148;48.554;7.834;2023-04-28T01:28:01;3.60;;;3.30;;
4268;SDS011;2148;48.554;7.834;2023-04-28T01:30:27;5.50;;;3.80;;
4268;SDS011;2148;48.554;7.834;2023-04-28T01:32:52;3.83;;;3.47;;
4268;SDS011;2148;48.554;7.834;2023-04-28T01:35:18;6.23;;;3.47;;
4268;SDS011;2148;48.554;7.834;2023-04-28T01:37:43;3.93;;;3.60;;
4268;SDS011;2148;48.554;7.834;2023-04-28T01:40:08;3.70;;;3.30;;
4268;SDS011;2148;48.554;7.834;2023-04-28T01:42:34;4.43;;;3.70;;
4268;SDS011;2148;48.554;7.834;2023-04-28T01:45:00;4.60;;;4.07;;
4268;SDS011;2148;48.554;7.834;2023-04-28T01:47:27;4.27;;;3.80;;
4268;SDS011;2148;48.554;7.834;2023-04-28T01:49:52;4.60;;;4.20;;
4268;SDS011;2148;48.554;7.834;2023-04-28T01:52:18;5.50;;;4.40;;
4268;SDS011;2148;48.554;7.834;2023-04-28T01:54:46;5.30;;;4.20;;
4268;SDS011;2148;48.554;7.834;2023-04-28T01:57:12;5.33;;;4.10;;
4268;SDS011;2148;48.554;7.834;2023-04-28T01:59:37;5.70;;;5.20;;
4268;SDS011;2148;48.554;7.834;2023-04-28T02:02:06;6.57;;;4.77;;
4268;SDS011;2148;48.554;7.834;2023-04-28T02:04:31;5.43;;;4.80;;
4268;SDS011;2148;48.554;7.834;2023-04-28T02:06:57;4.77;;;4.37;;
4268;SDS011;2148;48.554;7.834;2023-04-28T02:09:25;6.77;;;4.80;;
4268;SDS011;2148;48.554;7.834;2023-04-28T02:11:51;6.23;;;5.10;;
4268;SDS011;2148;48.554;7.834;2023-04-28T02:14:16;5.67;;;5.17;;
4268;SDS011;2148;48.554;7.834;2023-04-28T02:16:42;5.27;;;4.77;;
4268;SDS011;2148;48.554;7.834;2023-04-28T02:19:07;5.47;;;4.97;;
4268;SDS011;2148;48.554;7.834;2023-04-28T02:21:33;7.27;;;5.17;;
4268;SDS011;2148;48.554;7.834;2023-04-28T02:23:58;5.43;;;4.87;;
4268;SDS011;2148;48.554;7.834;2023-04-28T02:26:24;6.33;;;5.67;;
4268;SDS011;2148;48.554;7.834;2023-04-28T02:28:49;6.47;;;5.53;;
4268;SDS011;2148;48.554;7.834;2023-04-28T02:31:15;5.90;;;5.40;;
4268;SDS011;2148;48.554;7.834;2023-04-28T02:33:40;5.70;;;5.20;;
4268;SDS011;2148;48.554;7.834;2023-04-28T02:36:06;5.67;;;5.20;;
4268;SDS011;2148;48.554;7.834;2023-04-28T02:38:32;5.80;;;5.30;;
4268;SDS011;2148;48.554;7.834;2023-04-28T02:43:25;6.20;;;5.50;;
4268;SDS011;2148;48.554;7.834;2023-04-28T02:45:51;5.77;;;5.20;;
4268;SDS011;2148;48.554;7.834;2023-04-28T02:48:20;6.53;;;5.33;;
4268;SDS011;2148;48.554;7.834;2023-04-28T02:50:45;5.50;;;4.83;;
4268;SDS011;2148;48.554;7.834;2023-04-28T02:53:11;5.00;;;4.50;;
4268;SDS011;2148;48.554;7.834;2023-04-28T02:55:37;5.23;;;4.73;;
4268;SDS011;2148;48.554;7.834;2023-04-28T02:58:02;4.90;;;4.50;;
4268;SDS011;2148;48.554;7.834;2023-04-28T03:00:28;4.90;;;4.50;;
4268;SDS011;2148;48.554;7.834;2023-04-28T03:02:53;4.37;;;3.97;;
4268;SDS011;2148;48.554;7.834;2023-04-28T03:05:19;8.43;;;4.50;;
4268;SDS011;2148;48.554;7.834;2023-04-28T03:07:44;5.50;;;4.20;;
4268;SDS011;2148;48.554;7.834;2023-04-28T03:10:10;4.20;;;3.90;;
4268;SDS011;2148;48.554;7.834;2023-04-28T03:12:36;4.00;;;3.60;;
4268;SDS011;2148;48.554;7.834;2023-04-28T03:15:01;3.80;;;3.50;;
4268;SDS011;2148;48.554;7.834;2023-04-28T03:17:27;4.00;;;3.70;;
4268;SDS011;2148;48.554;7.834;2023-04-28T03:19:52;3.93;;;3.63;;
4268;SDS011;2148;48.554;7.834;2023-04-28T03:22:18;4.00;;;3.40;;
4268;SDS011;2148;48.554;7.834;2023-04-28T03:24:43;4.10;;;3.57;;
4268;SDS011;2148;48.554;7.834;2023-04-28T03:27:08;6.03;;;3.40;;
4268;SDS011;2148;48.554;7.834;2023-04-28T03:29:34;4.90;;;3.57;;
4268;SDS011;2148;48.554;7.834;2023-04-28T03:32:00;3.87;;;3.40;;
4268;SDS011;2148;48.554;7.834;2023-04-28T03:34:25;5.87;;;3.73;;
4268;SDS011;2148;48.554;7.834;2023-04-28T03:36:51;3.83;;;3.53;;
4268;SDS011;2148;48.554;7.834;2023-04-28T03:39:16;4.70;;;3.53;;
4268;SDS011;2148;48.554;7.834;2023-04-28T03:41:41;4.33;;;3.40;;
4268;SDS011;2148;48.554;7.834;2023-04-28T03:44:07;5.13;;;3.27;;
4268;SDS011;2148;48.554;7.834;2023-04-28T03:46:32;5.10;;;3.77;;
4268;SDS011;2148;48.554;7.834;2023-04-28T03:48:58;5.00;;;3.70;;
4268;SDS011;2148;48.554;7.834;2023-04-28T03:51:26;3.83;;;3.53;;
4268;SDS011;2148;48.554;7.834;2023-04-28T03:53:51;3.70;;;3.30;;
4268;SDS011;2148;48.554;7.834;2023-04-28T03:56:17;3.90;;;3.60;;
4268;SDS011;2148;48.554;7.834;2023-04-28T03:58:42;3.83;;;3.53;;
4268;SDS011;2148;48.554;7.834;2023-04-28T04:01:08;4.93;;;3.83;;
4268;SDS011;2148;48.554;7.834;2023-04-28T04:03:33;4.10;;;3.77;;
4268;SDS011;2148;48.554;7.834;2023-04-28T04:05:58;3.90;;;3.60;;
4268;SDS011;2148;48.554;7.834;2023-04-28T04:08:24;3.77;;;3.40;;
4268;SDS011;2148;48.554;7.834;2023-04-28T04:10:50;4.87;;;4.37;;
4268;SDS011;2148;48.554;7.834;2023-04-28T04:13:16;4.60;;;3.97;;
4268;SDS011;2148;48.554;7.834;2023-04-28T04:15:42;4.43;;;4.00;;
4268;SDS011;2148;48.554;7.834;2023-04-28T04:18:07;4.77;;;3.90;;
4268;SDS011;2148;48.554;7.834;2023-04-28T04:20:33;5.40;;;3.93;;
4268;SDS011;2148;48.554;7.834;2023-04-28T04:22:58;5.67;;;3.80;;
4268;SDS011;2148;48.554;7.834;2023-04-28T04:25:24;4.80;;;4.13;;
4268;SDS011;2148;48.554;7.834;2023-04-28T04:27:49;3.77;;;3.47;;
4268;SDS011;2148;48.554;7.834;2023-04-28T04:30:15;4.17;;;3.87;;
4268;SDS011;2148;48.554;7.834;2023-04-28T04:32:40;4.20;;;3.90;;
4268;SDS011;2148;48.554;7.834;2023-04-28T04:35:06;5.03;;;4.10;;
4268;SDS011;2148;48.554;7.834;2023-04-28T04:37:32;4.63;;;3.97;;
4268;SDS011;2148;48.554;7.834;2023-04-28T04:39:57;4.40;;;4.00;;
4268;SDS011;2148;48.554;7.834;2023-04-28T04:42:22;3.80;;;3.50;;
4268;SDS011;2148;48.554;7.834;2023-04-28T04:44:48;5.00;;;4.07;;
4268;SDS011;2148;48.554;7.834;2023-04-28T04:47:13;5.17;;;4.20;;
4268;SDS011;2148;48.554;7.834;2023-04-28T04:49:38;4.93;;;3.80;;
4268;SDS011;2148;48.554;7.834;2023-04-28T04:52:04;5.00;;;4.23;;
4268;SDS011;2148;48.554;7.834;2023-04-28T04:54:30;4.60;;;3.77;;
4268;SDS011;2148;48.554;7.834;2023-04-28T04:56:56;5.10;;;4.10;;
4268;SDS011;2148;48.554;7.834;2023-04-28T04:59:21;4.00;;;3.60;;
4268;SDS011;2148;48.554;7.834;2023-04-28T05:01:46;4.40;;;4.00;;
4268;SDS011;2148;48.554;7.834;2023-04-28T05:04:12;5.77;;;4.07;;
4268;SDS011;2148;48.554;7.834;2023-04-28T05:06:37;4.33;;;3.73;;
4268;SDS011;2148;48.554;7.834;2023-04-28T05:09:02;5.73;;;4.00;;
4268;SDS011;2148;48.554;7.834;2023-04-28T05:11:28;5.00;;;4.50;;
4268;SDS011;2148;48.554;7.834;2023-04-28T05:13:53;4.87;;;3.77;;
4268;SDS011;2148;48.554;7.834;2023-04-28T05:16:18;4.97;;;3.77;;
4268;SDS011;2148;48.554;7.834;2023-04-28T05:18:44;4.33;;;3.93;;
4268;SDS011;2148;48.554;7.834;2023-04-28T05:21:09;4.37;;;3.97;;
4268;SDS011;2148;48.554;7.834;2023-04-28T05:23:35;4.17;;;3.60;;
4268;SDS011;2148;48.554;7.834;2023-04-28T05:26:01;4.57;;;3.83;;
4268;SDS011;2148;48.554;7.834;2023-04-28T05:28:28;4.23;;;3.83;;
4268;SDS011;2148;48.554;7.834;2023-04-28T05:30:53;4.50;;;4.10;;
4268;SDS011;2148;48.554;7.834;2023-04-28T05:33:18;5.63;;;4.13;;
4268;SDS011;2148;48.554;7.834;2023-04-28T05:35:44;4.03;;;3.63;;
4268;SDS011;2148;48.554;7.834;2023-04-28T05:38:09;4.90;;;3.70;;
4268;SDS011;2148;48.554;7.834;2023-04-28T05:40:34;4.27;;;3.87;;
4268;SDS011;2148;48.554;7.834;2023-04-28T05:43:00;3.80;;;3.50;;
4268;SDS011;2148;48.554;7.834;2023-04-28T05:45:25;3.93;;;3.43;;
4268;SDS011;2148;48.554;7.834;2023-04-28T05:47:50;3.83;;;3.53;;
4268;SDS011;2148;48.554;7.834;2023-04-28T05:50:16;4.30;;;3.90;;
4268;SDS011;2148;48.554;7.834;2023-04-28T05:52:41;5.03;;;3.73;;
4268;SDS011;2148;48.554;7.834;2023-04-28T05:55:07;3.93;;;3.63;;
4268;SDS011;2148;48.554;7.834;2023-04-28T05:57:32;6.47;;;3.83;;
4268;SDS011;2148;48.554;7.834;2023-04-28T05:59:58;4.00;;;3.67;;
4268;SDS011;2148;48.554;7.834;2023-04-28T06:02:23;4.20;;;3.57;;
4268;SDS011;2148;48.554;7.834;2023-04-28T06:04:48;3.80;;;3.50;;
4268;SDS011;2148;48.554;7.834;2023-04-28T06:07:14;3.97;;;3.57;;
4268;SDS011;2148;48.554;7.834;2023-04-28T06:09:39;3.83;;;3.50;;
4268;SDS011;2148;48.554;7.834;2023-04-28T06:12:04;4.03;;;3.63;;
4268;SDS011;2148;48.554;7.834;2023-04-28T06:14:30;4.77;;;3.53;;
4268;SDS011;2148;48.554;7.834;2023-04-28T06:16:56;4.77;;;3.57;;
4268;SDS011;2148;48.554;7.834;2023-04-28T06:19:21;4.53;;;3.60;;
4268;SDS011;2148;48.554;7.834;2023-04-28T06:21:47;4.63;;;3.73;;
4268;SDS011;2148;48.554;7.834;2023-04-28T06:24:14;4.03;;;3.73;;
4268;SDS011;2148;48.554;7.834;2023-04-28T06:26:39;3.87;;;3.37;;
4268;SDS011;2148;48.554;7.834;2023-04-28T06:29:04;3.77;;;3.40;;
4268;SDS011;2148;48.554;7.834;2023-04-28T06:31:30;3.77;;;3.47;;
4268;SDS011;2148;48.554;7.834;2023-04-28T06:33:55;3.60;;;3.30;;
4268;SDS011;2148;48.554;7.834;2023-04-28T06:36:21;4.50;;;3.67;;
4268;SDS011;2148;48.554;7.834;2023-04-28T06:38:46;4.70;;;3.27;;
4268;SDS011;2148;48.554;7.834;2023-04-28T06:41:11;4.50;;;3.87;;
4268;SDS011;2148;48.554;7.834;2023-04-28T06:43:37;3.57;;;3.27;;
4268;SDS011;2148;48.554;7.834;2023-04-28T06:46:02;3.80;;;3.50;;
4268;SDS011;2148;48.554;7.834;2023-04-28T06:48:28;4.30;;;3.90;;
4268;SDS011;2148;48.554;7.834;2023-04-28T06:50:53;4.20;;;3.73;;
4268;SDS011;2148;48.554;7.834;2023-04-28T06:53:18;4.43;;;3.30;;
4268;SDS011;2148;48.554;7.834;2023-04-28T06:55:44;3.93;;;3.63;;
4268;SDS011;2148;48.554;7.834;2023-04-28T06:58:09;3.63;;;3.33;;
4268;SDS011;2148;48.554;7.834;2023-04-28T07:00:35;5.60;;;4.00;;
4268;SDS011;2148;48.554;7.834;2023-04-28T07:03:00;4.17;;;3.77;;
4268;SDS011;2148;48.554;7.834;2023-04-28T07:05:26;5.30;;;4.20;;
4268;SDS011;2148;48.554;7.834;2023-04-28T07:07:51;5.97;;;4.20;;
4268;SDS011;2148;48.554;7.834;2023-04-28T07:10:17;5.80;;;4.03;;
4268;SDS011;2148;48.554;7.834;2023-04-28T07:12:42;4.23;;;3.83;;
4268;SDS011;2148;48.554;7.834;2023-04-28T07:15:08;4.90;;;4.30;;
4268;SDS011;2148;48.554;7.834;2023-04-28T07:17:34;7.20;;;4.43;;
4268;SDS011;2148;48.554;7.834;2023-04-28T07:19:59;4.07;;;3.63;;
4268;SDS011;2148;48.554;7.834;2023-04-28T07:22:24;5.10;;;3.97;;
4268;SDS011;2148;48.554;7.834;2023-04-28T07:24:50;5.00;;;4.60;;
4268;SDS011;2148;48.554;7.834;2023-04-28T07:27:16;4.97;;;4.13;;
4268;SDS011;2148;48.554;7.834;2023-04-28T07:29:41;5.50;;;4.13;;
4268;SDS011;2148;48.554;7.834;2023-04-28T07:32:07;5.03;;;4.53;;
4268;SDS011;2148;48.554;7.834;2023-04-28T07:34:34;4.50;;;4.03;;
4268;SDS011;2148;48.554;7.834;2023-04-28T07:37:00;5.30;;;4.70;;
4268;SDS011;2148;48.554;7.834;2023-04-28T07:39:26;5.27;;;4.87;;
4268;SDS011;2148;48.554;7.834;2023-04-28T07:41:51;5.27;;;3.90;;
4268;SDS011;2148;48.554;7.834;2023-04-28T07:44:17;5.23;;;4.37;;
4268;SDS011;2148;48.554;7.834;2023-04-28T07:46:42;4.87;;;4.40;;
4268;SDS011;2148;48.554;7.834;2023-04-28T07:49:07;6.83;;;4.20;;
4268;SDS011;2148;48.554;7.834;2023-04-28T07:51:33;4.57;;;4.17;;
4268;SDS011;2148;48.554;7.834;2023-04-28T07:53:59;4.93;;;4.20;;
4268;SDS011;2148;48.554;7.834;2023-04-28T07:56:24;5.43;;;4.20;;
4268;SDS011;2148;48.554;7.834;2023-04-28T07:58:50;4.97;;;4.03;;
4268;SDS011;2148;48.554;7.834;2023-04-28T08:01:16;4.90;;;4.40;;
4268;SDS011;2148;48.554;7.834;2023-04-28T08:03:41;7.10;;;4.80;;
4268;SDS011;2148;48.554;7.834;2023-04-28T08:06:07;5.37;;;4.20;;
4268;SDS011;2148;48.554;7.834;2023-04-28T08:08:32;5.27;;;4.30;;
4268;SDS011;2148;48.554;7.834;2023-04-28T08:10:57;5.90;;;4.20;;
4268;SDS011;2148;48.554;7.834;2023-04-28T08:13:23;4.17;;;3.80;;
4268;SDS011;2148;48.554;7.834;2023-04-28T08:15:48;4.17;;;3.70;;
4268;SDS011;2148;48.554;7.834;2023-04-28T08:18:14;5.30;;;4.63;;
4268;SDS011;2148;48.554;7.834;2023-04-28T08:20:39;4.70;;;4.27;;
4268;SDS011;2148;48.554;7.834;2023-04-28T08:23:05;5.40;;;4.03;;
4268;SDS011;2148;48.554;7.834;2023-04-28T08:25:32;5.20;;;4.30;;
4268;SDS011;2148;48.554;7.834;2023-04-28T08:27:57;4.40;;;4.00;;
4268;SDS011;2148;48.554;7.834;2023-04-28T08:30:23;4.07;;;3.70;;
4268;SDS011;2148;48.554;7.834;2023-04-28T08:32:48;4.17;;;3.80;;
4268;SDS011;2148;48.554;7.834;2023-04-28T08:35:13;4.83;;;3.80;;
4268;SDS011;2148;48.554;7.834;2023-04-28T08:37:39;4.50;;;4.07;;
4268;SDS011;2148;48.554;7.834;2023-04-28T08:40:05;5.07;;;4.60;;
4268;SDS011;2148;48.554;7.834;2023-04-28T08:42:34;5.00;;;4.60;;
4268;SDS011;2148;48.554;7.834;2023-04-28T08:45:00;4.90;;;4.43;;
4268;SDS011;2148;48.554;7.834;2023-04-28T08:47:34;4.73;;;4.33;;
4268;SDS011;2148;48.554;7.834;2023-04-28T08:50:04;4.20;;;3.80;;
4268;SDS011;2148;48.554;7.834;2023-04-28T08:52:31;5.13;;;4.63;;
4268;SDS011;2148;48.554;7.834;2023-04-28T08:54:57;5.67;;;5.17;;
4268;SDS011;2148;48.554;7.834;2023-04-28T08:57:23;6.70;;;6.10;;
4268;SDS011;2148;48.554;7.834;2023-04-28T08:59:51;6.80;;;5.77;;
4268;SDS011;2148;48.554;7.834;2023-04-28T09:02:17;5.33;;;4.93;;
4268;SDS011;2148;48.554;7.834;2023-04-28T09:04:43;5.80;;;5.27;;
4268;SDS011;2148;48.554;7.834;2023-04-28T09:07:12;5.03;;;4.53;;
4268;SDS011;2148;48.554;7.834;2023-04-28T09:09:38;5.97;;;5.37;;
4268;SDS011;2148;48.554;7.834;2023-04-28T09:12:04;5.17;;;4.67;;
4268;SDS011;2148;48.554;7.834;2023-04-28T09:14:31;5.63;;;5.10;;
4268;SDS011;2148;48.554;7.834;2023-04-28T09:16:58;6.30;;;5.70;;
4268;SDS011;2148;48.554;7.834;2023-04-28T09:19:24;6.17;;;5.10;;
4268;SDS011;2148;48.554;7.834;2023-04-28T09:21:58;6.37;;;5.77;;
4268;SDS011;2148;48.554;7.834;2023-04-28T09:24:30;5.73;;;5.23;;
4268;SDS011;2148;48.554;7.834;2023-04-28T09:26:57;5.27;;;4.83;;
4268;SDS011;2148;48.554;7.834;2023-04-28T09:29:23;5.00;;;4.60;;
4268;SDS011;2148;48.554;7.834;2023-04-28T09:31:48;5.97;;;5.43;;
4268;SDS011;2148;48.554;7.834;2023-04-28T09:34:13;5.10;;;4.60;;
4268;SDS011;2148;48.554;7.834;2023-04-28T09:36:39;6.13;;;5.23;;
4268;SDS011;2148;48.554;7.834;2023-04-28T09:39:05;4.37;;;3.97;;
4268;SDS011;2148;48.554;7.834;2023-04-28T09:44:15;5.10;;;4.60;;
4268;SDS011;2148;48.554;7.834;2023-04-28T09:46:42;4.93;;;4.53;;
4268;SDS011;2148;48.554;7.834;2023-04-28T09:49:08;6.10;;;4.97;;
4268;SDS011;2148;48.554;7.834;2023-04-28T09:51:34;7.40;;;4.93;;
4268;SDS011;2148;48.554;7.834;2023-04-28T09:54:00;5.10;;;4.07;;
4268;SDS011;2148;48.554;7.834;2023-04-28T09:56:30;5.77;;;5.27;;
4268;SDS011;2148;48.554;7.834;2023-04-28T09:58:56;6.07;;;5.57;;
4268;SDS011;2148;48.554;7.834;2023-04-28T10:01:32;5.07;;;4.63;;
4268;SDS011;2148;48.554;7.834;2023-04-28T10:04:05;5.13;;;4.57;;
4268;SDS011;2148;48.554;7.834;2023-04-28T10:06:32;4.90;;;4.50;;
4268;SDS011;2148;48.554;7.834;2023-04-28T10:08:59;6.43;;;5.70;;
4268;SDS011;2148;48.554;7.834;2023-04-28T10:11:25;5.10;;;4.60;;
4268;SDS011;2148;48.554;7.834;2023-04-28T10:13:52;5.20;;;4.70;;
4268;SDS011;2148;48.554;7.834;2023-04-28T10:16:18;5.60;;;5.10;;
4268;SDS011;2148;48.554;7.834;2023-04-28T10:18:44;5.97;;;4.47;;
4268;SDS011;2148;48.554;7.834;2023-04-28T10:21:09;6.27;;;5.20;;
4268;SDS011;2148;48.554;7.834;2023-04-28T10:29:28;5.73;;;5.23;;
4268;SDS011;2148;48.554;7.834;2023-04-28T10:32:13;4.47;;;4.07;;
4268;SDS011;2148;48.554;7.834;2023-04-28T10:34:42;3.73;;;3.43;;
4268;SDS011;2148;48.554;7.834;2023-04-28T10:37:07;5.10;;;4.60;;
4268;SDS011;2148;48.554;7.834;2023-04-28T10:39:33;3.50;;;3.10;;
4268;SDS011;2148;48.554;7.834;2023-04-28T10:41:59;4.10;;;3.00;;
4268;SDS011;2148;48.554;7.834;2023-04-28T10:47:02;4.40;;;4.03;;
4268;SDS011;2148;48.554;7.834;2023-04-28T11:00:39;4.30;;;3.67;;
4268;SDS011;2148;48.554;7.834;2023-04-28T11:03:05;4.13;;;3.43;;
4268;SDS011;2148;48.554;7.834;2023-04-28T11:05:30;5.60;;;4.13;;
4268;SDS011;2148;48.554;7.834;2023-04-28T11:13:36;3.50;;;3.13;;
4268;SDS011;2148;48.554;7.834;2023-04-28T11:16:02;5.70;;;4.70;;
4268;SDS011;2148;48.554;7.834;2023-04-28T11:18:47;4.93;;;4.53;;
4268;SDS011;2148;48.554;7.834;2023-04-28T11:21:23;5.10;;;4.57;;
4268;SDS011;2148;48.554;7.834;2023-04-28T11:23:49;5.40;;;3.67;;
4268;SDS011;2148;48.554;7.834;2023-04-28T11:26:15;5.47;;;3.73;;
4268;SDS011;2148;48.554;7.834;2023-04-28T11:28:46;4.43;;;4.03;;
4268;SDS011;2148;48.554;7.834;2023-04-28T11:31:12;3.90;;;3.57;;
4268;SDS011;2148;48.554;7.834;2023-04-28T11:33:38;4.53;;;4.20;;
4268;SDS011;2148;48.554;7.834;2023-04-28T11:36:04;5.17;;;3.93;;
4268;SDS011;2148;48.554;7.834;2023-04-28T11:38:29;5.40;;;5.00;;
4268;SDS011;2148;48.554;7.834;2023-04-28T11:40:58;6.23;;;5.40;;
4268;SDS011;2148;48.554;7.834;2023-04-28T11:43:29;6.00;;;5.50;;
4268;SDS011;2148;48.554;7.834;2023-04-28T11:45:55;6.27;;;5.67;;
4268;SDS011;2148;48.554;7.834;2023-04-28T11:48:21;4.40;;;4.00;;
4268;SDS011;2148;48.554;7.834;2023-04-28T11:50:46;5.07;;;4.63;;
4268;SDS011;2148;48.554;7.834;2023-04-28T11:53:11;4.47;;;4.07;;
4268;SDS011;2148;48.554;7.834;2023-04-28T11:55:37;4.73;;;4.23;;
4268;SDS011;2148;48.554;7.834;2023-04-28T11:58:21;5.90;;;4.40;;
4268;SDS011;2148;48.554;7.834;2023-04-28T12:01:06;6.50;;;5.00;;
4268;SDS011;2148;48.554;7.834;2023-04-28T12:06:07;4.97;;;4.57;;
4268;SDS011;2148;48.554;7.834;2023-04-28T12:08:33;5.60;;;5.10;;
4268;SDS011;2148;48.554;7.834;2023-04-28T12:11:08;5.80;;;5.20;;
4268;SDS011;2148;48.554;7.834;2023-04-28T12:13:34;6.30;;;4.50;;
4268;SDS011;2148;48.554;7.834;2023-04-28T12:16:01;6.97;;;5.07;;
4268;SDS011;2148;48.554;7.834;2023-04-28T12:18:29;7.87;;;5.40;;
4268;SDS011;2148;48.554;7.834;2023-04-28T12:20:54;6.70;;;5.40;;
4268;SDS011;2148;48.554;7.834;2023-04-28T12:23:41;6.73;;;5.60;;
4268;SDS011;2148;48.554;7.834;2023-04-28T12:26:07;5.77;;;4.93;;
4268;SDS011;2148;48.554;7.834;2023-04-28T12:28:36;5.27;;;4.77;;
4268;SDS011;2148;48.554;7.834;2023-04-28T12:31:03;5.30;;;4.87;;
4268;SDS011;2148;48.554;7.834;2023-04-28T12:33:30;5.23;;;4.73;;
4268;SDS011;2148;48.554;7.834;2023-04-28T12:35:57;5.87;;;5.13;;
4268;SDS011;2148;48.554;7.834;2023-04-28T12:38:23;5.90;;;4.57;;
4268;SDS011;2148;48.554;7.834;2023-04-28T12:40:49;5.33;;;4.90;;
4268;SDS011;2148;48.554;7.834;2023-04-28T12:43:15;4.97;;;4.47;;
4268;SDS011;2148;48.554;7.834;2023-04-28T12:45:40;5.13;;;4.57;;
4268;SDS011;2148;48.554;7.834;2023-04-28T12:48:05;6.03;;;4.30;;
4268;SDS011;2148;48.554;7.834;2023-04-28T12:50:31;4.63;;;4.23;;
4268;SDS011;2148;48.554;7.834;2023-04-28T12:52:57;5.63;;;4.70;;
4268;SDS011;2148;48.554;7.834;2023-04-28T12:55:22;4.73;;;4.27;;
4268;SDS011;2148;48.554;7.834;2023-04-28T12:57:48;5.70;;;5.10;;
4268;SDS011;2148;48.554;7.834;2023-04-28T13:00:13;5.50;;;5.00;;
4268;SDS011;2148;48.554;7.834;2023-04-28T13:02:45;5.17;;;4.33;;
4268;SDS011;2148;48.554;7.834;2023-04-28T13:05:10;5.90;;;4.50;;
4268;SDS011;2148;48.554;7.834;2023-04-28T13:07:36;5.27;;;4.73;;
4268;SDS011;2148;48.554;7.834;2023-04-28T13:10:01;5.20;;;4.77;;
4268;SDS011;2148;48.554;7.834;2023-04-28T13:12:26;6.43;;;4.33;;
4268;SDS011;2148;48.554;7.834;2023-04-28T13:14:52;3.77;;;3.47;;
4268;SDS011;2148;48.554;7.834;2023-04-28T13:17:17;2.80;;;2.60;;
4268;SDS011;2148;48.554;7.834;2023-04-28T13:19:42;8.83;;;4.33;;
4268;SDS011;2148;48.554;7.834;2023-04-28T13:22:08;4.90;;;4.50;;
4268;SDS011;2148;48.554;7.834;2023-04-28T13:24:34;4.93;;;4.53;;
4268;SDS011;2148;48.554;7.834;2023-04-28T13:26:59;6.20;;;4.63;;
4268;SDS011;2148;48.554;7.834;2023-04-28T13:29:26;5.23;;;4.73;;
4268;SDS011;2148;48.554;7.834;2023-04-28T13:31:52;5.63;;;5.13;;
4268;SDS011;2148;48.554;7.834;2023-04-28T13:34:18;6.23;;;5.57;;
4268;SDS011;2148;48.554;7.834;2023-04-28T13:36:43;6.50;;;5.90;;
4268;SDS011;2148;48.554;7.834;2023-04-28T13:39:09;6.23;;;5.73;;
4268;SDS011;2148;48.554;7.834;2023-04-28T13:41:40;6.73;;;6.13;;
4268;SDS011;2148;48.554;7.834;2023-04-28T13:44:06;6.43;;;5.50;;
4268;SDS011;2148;48.554;7.834;2023-04-28T13:46:32;6.33;;;5.73;;
4268;SDS011;2148;48.554;7.834;2023-04-28T13:48:57;5.33;;;4.80;;
4268;SDS011;2148;48.554;7.834;2023-04-28T13:51:23;5.07;;;4.57;;
4268;SDS011;2148;48.554;7.834;2023-04-28T13:53:48;3.90;;;3.60;;
4268;SDS011;2148;48.554;7.834;2023-04-28T13:56:14;5.57;;;3.90;;
4268;SDS011;2148;48.554;7.834;2023-04-28T13:58:39;3.90;;;3.50;;
4268;SDS011;2148;48.554;7.834;2023-04-28T14:01:05;3.90;;;3.10;;
4268;SDS011;2148;48.554;7.834;2023-04-28T14:03:31;3.63;;;2.83;;
4268;SDS011;2148;48.554;7.834;2023-04-28T14:05:57;3.40;;;3.10;;
4268;SDS011;2148;48.554;7.834;2023-04-28T14:08:23;2.50;;;2.30;;
4268;SDS011;2148;48.554;7.834;2023-04-28T14:10:48;2.30;;;2.10;;
4268;SDS011;2148;48.554;7.834;2023-04-28T14:13:15;2.33;;;2.13;;
4268;SDS011;2148;48.554;7.834;2023-04-28T14:15:40;3.43;;;2.20;;
4268;SDS011;2148;48.554;7.834;2023-04-28T14:18:06;3.30;;;2.30;;
4268;SDS011;2148;48.554;7.834;2023-04-28T14:20:32;2.40;;;2.27;;
4268;SDS011;2148;48.554;7.834;2023-04-28T14:22:58;2.70;;;2.27;;
4268;SDS011;2148;48.554;7.834;2023-04-28T14:25:24;2.30;;;2.10;;
4268;SDS011;2148;48.554;7.834;2023-04-28T14:27:49;2.37;;;2.17;;
4268;SDS011;2148;48.554;7.834;2023-04-28T14:30:15;3.27;;;2.97;;
4268;SDS011;2148;48.554;7.834;2023-04-28T14:32:40;2.60;;;2.40;;
4268;SDS011;2148;48.554;7.834;2023-04-28T14:35:06;1.97;;;1.87;;
4268;SDS011;2148;48.554;7.834;2023-04-28T14:37:32;2.73;;;2.53;;
4268;SDS011;2148;48.554;7.834;2023-04-28T14:39:58;4.23;;;2.30;;
4268;SDS011;2148;48.554;7.834;2023-04-28T14:42:26;2.00;;;1.90;;
4268;SDS011;2148;48.554;7.834;2023-04-28T14:44:53;2.27;;;2.10;;
4268;SDS011;2148;48.554;7.834;2023-04-28T14:47:19;2.77;;;2.20;;
4268;SDS011;2148;48.554;7.834;2023-04-28T14:49:45;2.53;;;2.27;;
4268;SDS011;2148;48.554;7.834;2023-04-28T14:52:11;2.30;;;2.10;;
4268;SDS011;2148;48.554;7.834;2023-04-28T14:54:37;2.70;;;2.37;;
4268;SDS011;2148;48.554;7.834;2023-04-28T14:57:03;2.10;;;1.83;;
4268;SDS011;2148;48.554;7.834;2023-04-28T14:59:28;2.43;;;2.23;;
4268;SDS011;2148;48.554;7.834;2023-04-28T15:01:54;2.63;;;2.43;;
4268;SDS011;2148;48.554;7.834;2023-04-28T15:04:20;2.40;;;2.20;;
4268;SDS011;2148;48.554;7.834;2023-04-28T15:06:46;2.90;;;2.67;;
4268;SDS011;2148;48.554;7.834;2023-04-28T15:09:11;3.30;;;2.70;;
4268;SDS011;2148;48.554;7.834;2023-04-28T15:11:37;4.10;;;2.90;;
4268;SDS011;2148;48.554;7.834;2023-04-28T15:14:02;4.17;;;3.07;;
4268;SDS011;2148;48.554;7.834;2023-04-28T15:16:28;3.47;;;3.00;;
4268;SDS011;2148;48.554;7.834;2023-04-28T15:18:53;3.40;;;3.10;;
4268;SDS011;2148;48.554;7.834;2023-04-28T15:21:18;4.07;;;3.70;;
4268;SDS011;2148;48.554;7.834;2023-04-28T15:23:44;5.77;;;3.80;;
4268;SDS011;2148;48.554;7.834;2023-04-28T15:26:09;4.27;;;3.87;;
4268;SDS011;2148;48.554;7.834;2023-04-28T15:28:34;4.60;;;3.60;;
4268;SDS011;2148;48.554;7.834;2023-04-28T15:31:00;4.40;;;4.00;;
4268;SDS011;2148;48.554;7.834;2023-04-28T15:33:26;4.20;;;3.80;;
4268;SDS011;2148;48.554;7.834;2023-04-28T15:35:52;5.40;;;4.27;;
4268;SDS011;2148;48.554;7.834;2023-04-28T15:38:17;4.30;;;3.57;;
4268;SDS011;2148;48.554;7.834;2023-04-28T15:40:42;5.00;;;3.77;;